sensor_id;sensor_type;location;lat;lon;timestamp;temperature;humidity
61323;DHT22;47203;48.428;11.974;2022-07-23T00:00:44;26.60;52.20
61323;DHT22;47203;48.428;11.974;2022-07-23T00:02:49;26.70;52.50
61323;DHT22;47203;48.428;11.974;2022-07-23T00:04:54;26.70;52.40
61323;DHT22;47203;48.428;11.974;2022-07-23T00:07:00;26.70;52.60
61323;DHT22;47203;48.428;11.974;2022-07-23T00:09:08;26.70;52.60
61323;DHT22;47203;48.428;11.974;2022-07-23T00:11:13;26.70;52.50
61323;DHT22;47203;48.428;11.974;2022-07-23T00:13:18;26.70;52.20
61323;DHT22;47203;48.428;11.974;2022-07-23T00:15:24;26.70;51.90
61323;DHT22;47203;48.428;11.974;2022-07-23T00:17:29;26.70;52.10
61323;DHT22;47203;48.428;11.974;2022-07-23T00:19:34;26.80;52.80
61323;DHT22;47203;48.428;11.974;2022-07-23T00:21:39;26.80;52.80
61323;DHT22;47203;48.428;11.974;2022-07-23T00:23:45;26.80;52.60
61323;DHT22;47203;48.428;11.974;2022-07-23T00:25:53;26.80;52.60
61323;DHT22;47203;48.428;11.974;2022-07-23T00:27:58;26.80;52.80
61323;DHT22;47203;48.428;11.974;2022-07-23T00:30:06;26.80;52.70
61323;DHT22;47203;48.428;11.974;2022-07-23T00:32:12;26.80;52.70
61323;DHT22;47203;48.428;11.974;2022-07-23T00:34:37;26.80;52.70
61323;DHT22;47203;48.428;11.974;2022-07-23T00:36:42;26.70;52.90
61323;DHT22;47203;48.428;11.974;2022-07-23T00:38:48;26.70;53.50
61323;DHT22;47203;48.428;11.974;2022-07-23T00:40:56;26.70;52.90
61323;DHT22;47203;48.428;11.974;2022-07-23T00:43:02;26.70;53.00
61323;DHT22;47203;48.428;11.974;2022-07-23T00:45:08;26.60;52.80
61323;DHT22;47203;48.428;11.974;2022-07-23T00:47:13;26.60;52.90
61323;DHT22;47203;48.428;11.974;2022-07-23T00:49:19;26.60;52.80
61323;DHT22;47203;48.428;11.974;2022-07-23T00:51:25;26.60;52.90
61323;DHT22;47203;48.428;11.974;2022-07-23T00:53:30;26.60;52.90
61323;DHT22;47203;48.428;11.974;2022-07-23T00:55:36;26.60;52.90
61323;DHT22;47203;48.428;11.974;2022-07-23T00:57:45;26.60;52.90
61323;DHT22;47203;48.428;11.974;2022-07-23T00:59:51;26.60;53.30
61323;DHT22;47203;48.428;11.974;2022-07-23T01:01:56;26.60;53.30
61323;DHT22;47203;48.428;11.974;2022-07-23T01:04:02;26.60;53.10
61323;DHT22;47203;48.428;11.974;2022-07-23T01:06:08;26.60;53.10
61323;DHT22;47203;48.428;11.974;2022-07-23T01:08:13;26.60;53.10
61323;DHT22;47203;48.428;11.974;2022-07-23T01:10:19;26.60;53.10
61323;DHT22;47203;48.428;11.974;2022-07-23T01:12:37;26.60;53.10
61323;DHT22;47203;48.428;11.974;2022-07-23T01:14:44;26.70;53.10
61323;DHT22;47203;48.428;11.974;2022-07-23T01:16:50;26.60;53.10
61323;DHT22;47203;48.428;11.974;2022-07-23T01:18:56;26.50;52.80
61323;DHT22;47203;48.428;11.974;2022-07-23T01:21:04;26.60;52.90
61323;DHT22;47203;48.428;11.974;2022-07-23T01:23:13;26.60;53.20
61323;DHT22;47203;48.428;11.974;2022-07-23T01:25:24;26.50;53.20
61323;DHT22;47203;48.428;11.974;2022-07-23T01:27:36;26.50;53.20
61323;DHT22;47203;48.428;11.974;2022-07-23T01:29:42;26.50;53.10
61323;DHT22;47203;48.428;11.974;2022-07-23T01:31:52;26.40;53.00
61323;DHT22;47203;48.428;11.974;2022-07-23T01:33:57;26.40;53.40
61323;DHT22;47203;48.428;11.974;2022-07-23T01:36:03;26.30;53.10
61323;DHT22;47203;48.428;11.974;2022-07-23T01:38:09;26.30;53.10
61323;DHT22;47203;48.428;11.974;2022-07-23T01:40:18;26.20;53.00
61323;DHT22;47203;48.428;11.974;2022-07-23T01:42:25;26.20;52.80
61323;DHT22;47203;48.428;11.974;2022-07-23T01:44:30;26.20;52.50
61323;DHT22;47203;48.428;11.974;2022-07-23T01:46:36;26.10;52.30
61323;DHT22;47203;48.428;11.974;2022-07-23T01:48:44;26.10;52.40
61323;DHT22;47203;48.428;11.974;2022-07-23T01:51:08;26.10;52.40
61323;DHT22;47203;48.428;11.974;2022-07-23T01:53:17;26.20;52.40
61323;DHT22;47203;48.428;11.974;2022-07-23T01:55:25;26.20;52.50
61323;DHT22;47203;48.428;11.974;2022-07-23T01:57:31;26.20;52.40
61323;DHT22;47203;48.428;11.974;2022-07-23T01:59:38;26.20;52.20
61323;DHT22;47203;48.428;11.974;2022-07-23T02:01:44;26.20;52.10
61323;DHT22;47203;48.428;11.974;2022-07-23T02:03:50;26.20;51.90
61323;DHT22;47203;48.428;11.974;2022-07-23T02:05:56;26.20;51.10
61323;DHT22;47203;48.428;11.974;2022-07-23T02:08:03;26.10;50.30
61323;DHT22;47203;48.428;11.974;2022-07-23T02:10:11;26.20;50.30
61323;DHT22;47203;48.428;11.974;2022-07-23T02:12:19;26.20;50.20
61323;DHT22;47203;48.428;11.974;2022-07-23T02:14:25;26.20;50.00
61323;DHT22;47203;48.428;11.974;2022-07-23T02:16:31;26.20;49.20
61323;DHT22;47203;48.428;11.974;2022-07-23T02:18:36;26.20;48.60
61323;DHT22;47203;48.428;11.974;2022-07-23T02:20:42;26.20;48.50
61323;DHT22;47203;48.428;11.974;2022-07-23T02:22:48;26.10;48.30
61323;DHT22;47203;48.428;11.974;2022-07-23T02:24:53;26.10;48.00
61323;DHT22;47203;48.428;11.974;2022-07-23T02:26:58;26.10;47.90
61323;DHT22;47203;48.428;11.974;2022-07-23T02:29:07;26.10;48.30
61323;DHT22;47203;48.428;11.974;2022-07-23T02:31:12;26.10;48.50
61323;DHT22;47203;48.428;11.974;2022-07-23T02:33:17;26.10;49.20
61323;DHT22;47203;48.428;11.974;2022-07-23T02:35:23;26.00;49.80
61323;DHT22;47203;48.428;11.974;2022-07-23T02:37:31;25.90;50.00
61323;DHT22;47203;48.428;11.974;2022-07-23T02:39:37;25.80;50.30
61323;DHT22;47203;48.428;11.974;2022-07-23T02:41:42;25.80;50.50
61323;DHT22;47203;48.428;11.974;2022-07-23T02:43:48;25.60;50.90
61323;DHT22;47203;48.428;11.974;2022-07-23T02:45:55;25.60;51.40
61323;DHT22;47203;48.428;11.974;2022-07-23T02:48:01;25.40;51.70
61323;DHT22;47203;48.428;11.974;2022-07-23T02:50:07;25.40;52.10
61323;DHT22;47203;48.428;11.974;2022-07-23T02:52:14;25.20;52.50
61323;DHT22;47203;48.428;11.974;2022-07-23T02:54:19;25.10;52.60
61323;DHT22;47203;48.428;11.974;2022-07-23T02:56:26;25.00;52.60
61323;DHT22;47203;48.428;11.974;2022-07-23T02:58:32;24.90;52.80
61323;DHT22;47203;48.428;11.974;2022-07-23T03:00:37;24.80;53.20
61323;DHT22;47203;48.428;11.974;2022-07-23T03:02:45;24.70;53.40
61323;DHT22;47203;48.428;11.974;2022-07-23T03:04:51;24.60;53.50
61323;DHT22;47203;48.428;11.974;2022-07-23T03:06:56;24.50;53.60
61323;DHT22;47203;48.428;11.974;2022-07-23T03:09:02;24.40;54.00
61323;DHT22;47203;48.428;11.974;2022-07-23T03:11:07;24.40;54.80
61323;DHT22;47203;48.428;11.974;2022-07-23T03:13:14;24.30;55.30
61323;DHT22;47203;48.428;11.974;2022-07-23T03:15:20;24.20;55.70
61323;DHT22;47203;48.428;11.974;2022-07-23T03:17:25;24.20;55.60
61323;DHT22;47203;48.428;11.974;2022-07-23T03:19:33;24.10;55.20
61323;DHT22;47203;48.428;11.974;2022-07-23T03:21:38;24.10;54.90
61323;DHT22;47203;48.428;11.974;2022-07-23T03:23:44;24.00;54.90
61323;DHT22;47203;48.428;11.974;2022-07-23T03:25:49;24.00;55.10
61323;DHT22;47203;48.428;11.974;2022-07-23T03:27:56;23.90;55.80
61323;DHT22;47203;48.428;11.974;2022-07-23T03:30:04;23.90;56.00
61323;DHT22;47203;48.428;11.974;2022-07-23T03:32:10;23.80;56.10
61323;DHT22;47203;48.428;11.974;2022-07-23T03:34:16;23.80;56.50
61323;DHT22;47203;48.428;11.974;2022-07-23T03:36:24;23.80;56.70
61323;DHT22;47203;48.428;11.974;2022-07-23T03:38:30;23.70;57.30
61323;DHT22;47203;48.428;11.974;2022-07-23T03:40:36;23.70;57.80
61323;DHT22;47203;48.428;11.974;2022-07-23T03:42:42;23.70;58.20
61323;DHT22;47203;48.428;11.974;2022-07-23T03:44:47;23.60;57.90
61323;DHT22;47203;48.428;11.974;2022-07-23T03:46:53;23.60;58.00
61323;DHT22;47203;48.428;11.974;2022-07-23T03:48:58;23.50;58.50
61323;DHT22;47203;48.428;11.974;2022-07-23T03:51:04;23.50;58.70
61323;DHT22;47203;48.428;11.974;2022-07-23T03:53:12;23.50;58.70
61323;DHT22;47203;48.428;11.974;2022-07-23T03:55:18;23.40;58.20
61323;DHT22;47203;48.428;11.974;2022-07-23T03:57:23;23.40;58.40
61323;DHT22;47203;48.428;11.974;2022-07-23T03:59:29;23.50;59.00
61323;DHT22;47203;48.428;11.974;2022-07-23T04:01:34;23.40;59.30
61323;DHT22;47203;48.428;11.974;2022-07-23T04:03:40;23.40;59.50
61323;DHT22;47203;48.428;11.974;2022-07-23T04:05:46;23.30;59.70
61323;DHT22;47203;48.428;11.974;2022-07-23T04:07:51;23.30;59.60
61323;DHT22;47203;48.428;11.974;2022-07-23T04:09:59;23.20;59.80
61323;DHT22;47203;48.428;11.974;2022-07-23T04:12:05;23.20;60.00
61323;DHT22;47203;48.428;11.974;2022-07-23T04:14:11;23.10;60.00
61323;DHT22;47203;48.428;11.974;2022-07-23T04:16:16;23.10;60.00
61323;DHT22;47203;48.428;11.974;2022-07-23T04:18:22;23.00;60.30
61323;DHT22;47203;48.428;11.974;2022-07-23T04:20:33;23.00;60.60
61323;DHT22;47203;48.428;11.974;2022-07-23T04:22:42;23.00;60.90
61323;DHT22;47203;48.428;11.974;2022-07-23T04:24:48;22.90;61.00
61323;DHT22;47203;48.428;11.974;2022-07-23T04:26:56;22.90;61.00
61323;DHT22;47203;48.428;11.974;2022-07-23T04:29:02;22.90;62.30
61323;DHT22;47203;48.428;11.974;2022-07-23T04:31:07;22.80;61.80
61323;DHT22;47203;48.428;11.974;2022-07-23T04:33:14;22.70;62.00
61323;DHT22;47203;48.428;11.974;2022-07-23T04:35:22;22.70;61.80
61323;DHT22;47203;48.428;11.974;2022-07-23T04:37:32;22.60;62.50
61323;DHT22;47203;48.428;11.974;2022-07-23T04:39:37;22.60;62.60
61323;DHT22;47203;48.428;11.974;2022-07-23T04:41:43;22.50;63.00
61323;DHT22;47203;48.428;11.974;2022-07-23T04:43:51;22.50;63.30
61323;DHT22;47203;48.428;11.974;2022-07-23T04:45:56;22.50;63.60
61323;DHT22;47203;48.428;11.974;2022-07-23T04:48:08;22.50;63.80
61323;DHT22;47203;48.428;11.974;2022-07-23T04:50:13;22.40;63.30
61323;DHT22;47203;48.428;11.974;2022-07-23T04:52:26;22.40;63.50
61323;DHT22;47203;48.428;11.974;2022-07-23T04:54:32;22.40;63.70
61323;DHT22;47203;48.428;11.974;2022-07-23T04:56:37;22.40;63.60
61323;DHT22;47203;48.428;11.974;2022-07-23T04:58:42;22.40;63.70
61323;DHT22;47203;48.428;11.974;2022-07-23T05:00:50;22.40;63.90
61323;DHT22;47203;48.428;11.974;2022-07-23T05:02:56;22.30;63.90
61323;DHT22;47203;48.428;11.974;2022-07-23T05:05:02;22.40;63.60
61323;DHT22;47203;48.428;11.974;2022-07-23T05:07:07;22.40;63.70
61323;DHT22;47203;48.428;11.974;2022-07-23T05:09:13;22.40;63.50
61323;DHT22;47203;48.428;11.974;2022-07-23T05:11:18;22.50;63.50
61323;DHT22;47203;48.428;11.974;2022-07-23T05:13:28;22.60;63.60
61323;DHT22;47203;48.428;11.974;2022-07-23T05:15:34;22.70;63.90
61323;DHT22;47203;48.428;11.974;2022-07-23T05:17:42;22.70;64.00
61323;DHT22;47203;48.428;11.974;2022-07-23T05:19:51;22.80;64.00
61323;DHT22;47203;48.428;11.974;2022-07-23T05:22:02;22.90;63.70
61323;DHT22;47203;48.428;11.974;2022-07-23T05:24:08;22.80;63.60
61323;DHT22;47203;48.428;11.974;2022-07-23T05:26:13;22.90;63.90
61323;DHT22;47203;48.428;11.974;2022-07-23T05:28:19;23.00;63.70
61323;DHT22;47203;48.428;11.974;2022-07-23T05:30:26;23.00;63.60
61323;DHT22;47203;48.428;11.974;2022-07-23T05:32:35;23.00;63.60
61323;DHT22;47203;48.428;11.974;2022-07-23T05:34:50;23.00;63.50
61323;DHT22;47203;48.428;11.974;2022-07-23T05:36:55;23.00;63.80
61323;DHT22;47203;48.428;11.974;2022-07-23T05:39:01;23.10;63.50
61323;DHT22;47203;48.428;11.974;2022-07-23T05:41:10;23.00;63.30
61323;DHT22;47203;48.428;11.974;2022-07-23T05:43:16;23.10;63.60
61323;DHT22;47203;48.428;11.974;2022-07-23T05:45:21;23.10;63.50
61323;DHT22;47203;48.428;11.974;2022-07-23T05:47:27;23.10;63.60
61323;DHT22;47203;48.428;11.974;2022-07-23T05:49:32;23.10;63.30
61323;DHT22;47203;48.428;11.974;2022-07-23T05:52:07;23.20;63.30
61323;DHT22;47203;48.428;11.974;2022-07-23T05:54:46;23.20;63.50
61323;DHT22;47203;48.428;11.974;2022-07-23T05:56:51;23.20;63.00
61323;DHT22;47203;48.428;11.974;2022-07-23T05:58:57;23.20;62.90
61323;DHT22;47203;48.428;11.974;2022-07-23T06:01:03;23.20;63.00
61323;DHT22;47203;48.428;11.974;2022-07-23T06:03:16;23.30;63.10
61323;DHT22;47203;48.428;11.974;2022-07-23T06:05:22;23.20;62.90
61323;DHT22;47203;48.428;11.974;2022-07-23T06:07:33;23.20;63.20
61323;DHT22;47203;48.428;11.974;2022-07-23T06:09:39;23.30;63.40
61323;DHT22;47203;48.428;11.974;2022-07-23T06:11:44;23.30;63.30
61323;DHT22;47203;48.428;11.974;2022-07-23T06:13:49;23.40;63.70
61323;DHT22;47203;48.428;11.974;2022-07-23T06:15:59;23.40;64.00
61323;DHT22;47203;48.428;11.974;2022-07-23T06:18:04;23.40;63.40
61323;DHT22;47203;48.428;11.974;2022-07-23T06:20:10;23.50;63.20
61323;DHT22;47203;48.428;11.974;2022-07-23T06:22:17;23.50;63.00
61323;DHT22;47203;48.428;11.974;2022-07-23T06:24:24;23.50;63.10
61323;DHT22;47203;48.428;11.974;2022-07-23T06:26:30;23.60;63.40
61323;DHT22;47203;48.428;11.974;2022-07-23T06:28:35;23.60;63.30
61323;DHT22;47203;48.428;11.974;2022-07-23T06:30:40;23.80;63.50
61323;DHT22;47203;48.428;11.974;2022-07-23T06:32:48;23.80;63.40
61323;DHT22;47203;48.428;11.974;2022-07-23T06:34:53;23.80;63.40
61323;DHT22;47203;48.428;11.974;2022-07-23T06:36:59;24.00;63.40
61323;DHT22;47203;48.428;11.974;2022-07-23T06:39:04;24.10;63.00
61323;DHT22;47203;48.428;11.974;2022-07-23T06:41:13;24.20;63.20
61323;DHT22;47203;48.428;11.974;2022-07-23T06:43:18;24.30;63.10
61323;DHT22;47203;48.428;11.974;2022-07-23T06:45:28;24.40;62.80
61323;DHT22;47203;48.428;11.974;2022-07-23T06:47:34;24.50;62.80
61323;DHT22;47203;48.428;11.974;2022-07-23T06:49:39;24.60;62.30
61323;DHT22;47203;48.428;11.974;2022-07-23T06:51:45;24.70;61.90
61323;DHT22;47203;48.428;11.974;2022-07-23T06:53:50;24.80;61.60
61323;DHT22;47203;48.428;11.974;2022-07-23T06:55:56;24.90;61.40
61323;DHT22;47203;48.428;11.974;2022-07-23T06:58:04;24.90;61.60
61323;DHT22;47203;48.428;11.974;2022-07-23T07:00:12;25.00;61.00
61323;DHT22;47203;48.428;11.974;2022-07-23T07:02:18;25.10;60.60
61323;DHT22;47203;48.428;11.974;2022-07-23T07:04:23;25.10;60.40
61323;DHT22;47203;48.428;11.974;2022-07-23T07:06:29;25.20;60.00
61323;DHT22;47203;48.428;11.974;2022-07-23T07:08:34;25.20;60.00
61323;DHT22;47203;48.428;11.974;2022-07-23T07:10:40;25.20;60.50
61323;DHT22;47203;48.428;11.974;2022-07-23T07:12:45;25.30;60.50
61323;DHT22;47203;48.428;11.974;2022-07-23T07:14:53;25.30;60.20
61323;DHT22;47203;48.428;11.974;2022-07-23T07:16:58;25.40;60.40
61323;DHT22;47203;48.428;11.974;2022-07-23T07:19:04;25.40;60.80
61323;DHT22;47203;48.428;11.974;2022-07-23T07:21:09;25.50;60.50
61323;DHT22;47203;48.428;11.974;2022-07-23T07:23:14;25.50;60.10
61323;DHT22;47203;48.428;11.974;2022-07-23T07:25:20;25.50;59.80
61323;DHT22;47203;48.428;11.974;2022-07-23T07:27:25;25.60;59.70
61323;DHT22;47203;48.428;11.974;2022-07-23T07:29:30;25.60;59.60
61323;DHT22;47203;48.428;11.974;2022-07-23T07:31:38;25.60;59.50
61323;DHT22;47203;48.428;11.974;2022-07-23T07:33:44;25.60;59.20
61323;DHT22;47203;48.428;11.974;2022-07-23T07:35:49;25.60;59.20
61323;DHT22;47203;48.428;11.974;2022-07-23T07:37:55;25.70;59.20
61323;DHT22;47203;48.428;11.974;2022-07-23T07:40:00;25.70;60.00
61323;DHT22;47203;48.428;11.974;2022-07-23T07:42:06;25.70;59.50
61323;DHT22;47203;48.428;11.974;2022-07-23T07:44:11;25.70;59.00
61323;DHT22;47203;48.428;11.974;2022-07-23T07:46:16;25.80;59.30
61323;DHT22;47203;48.428;11.974;2022-07-23T07:48:24;25.80;59.10
61323;DHT22;47203;48.428;11.974;2022-07-23T07:50:29;25.80;59.10
61323;DHT22;47203;48.428;11.974;2022-07-23T07:52:35;25.80;58.90
61323;DHT22;47203;48.428;11.974;2022-07-23T07:54:40;25.80;58.70
61323;DHT22;47203;48.428;11.974;2022-07-23T07:56:46;25.80;58.50
61323;DHT22;47203;48.428;11.974;2022-07-23T07:58:51;25.80;58.50
61323;DHT22;47203;48.428;11.974;2022-07-23T08:00:56;25.80;58.60
61323;DHT22;47203;48.428;11.974;2022-07-23T08:03:02;25.80;58.30
61323;DHT22;47203;48.428;11.974;2022-07-23T08:05:11;25.80;58.20
61323;DHT22;47203;48.428;11.974;2022-07-23T08:07:18;25.80;58.00
61323;DHT22;47203;48.428;11.974;2022-07-23T08:09:23;25.80;57.90
61323;DHT22;47203;48.428;11.974;2022-07-23T08:11:28;25.70;58.20
61323;DHT22;47203;48.428;11.974;2022-07-23T08:13:34;25.80;58.20
61323;DHT22;47203;48.428;11.974;2022-07-23T08:15:39;25.80;58.20
61323;DHT22;47203;48.428;11.974;2022-07-23T08:17:46;25.80;58.50
61323;DHT22;47203;48.428;11.974;2022-07-23T08:19:52;25.80;58.50
61323;DHT22;47203;48.428;11.974;2022-07-23T08:22:00;25.80;58.30
61323;DHT22;47203;48.428;11.974;2022-07-23T08:24:06;25.90;58.40
61323;DHT22;47203;48.428;11.974;2022-07-23T08:26:11;25.90;58.50
61323;DHT22;47203;48.428;11.974;2022-07-23T08:28:16;25.90;58.50
61323;DHT22;47203;48.428;11.974;2022-07-23T08:30:22;25.90;58.50
61323;DHT22;47203;48.428;11.974;2022-07-23T08:32:28;25.90;58.80
61323;DHT22;47203;48.428;11.974;2022-07-23T08:34:46;25.90;59.10
61323;DHT22;47203;48.428;11.974;2022-07-23T08:36:51;25.90;59.00
61323;DHT22;47203;48.428;11.974;2022-07-23T08:38:59;25.90;59.00
61323;DHT22;47203;48.428;11.974;2022-07-23T08:41:07;25.90;58.80
61323;DHT22;47203;48.428;11.974;2022-07-23T08:43:14;25.90;58.50
61323;DHT22;47203;48.428;11.974;2022-07-23T08:45:22;25.90;58.40
61323;DHT22;47203;48.428;11.974;2022-07-23T08:47:29;25.90;58.60
61323;DHT22;47203;48.428;11.974;2022-07-23T08:49:35;25.80;58.70
61323;DHT22;47203;48.428;11.974;2022-07-23T08:51:42;25.80;59.00
61323;DHT22;47203;48.428;11.974;2022-07-23T08:53:48;25.80;59.00
61323;DHT22;47203;48.428;11.974;2022-07-23T08:55:57;25.80;58.60
61323;DHT22;47203;48.428;11.974;2022-07-23T08:58:03;25.70;59.10
61323;DHT22;47203;48.428;11.974;2022-07-23T09:00:12;25.70;58.80
61323;DHT22;47203;48.428;11.974;2022-07-23T09:02:19;25.70;59.10
61323;DHT22;47203;48.428;11.974;2022-07-23T09:04:24;25.70;59.30
61323;DHT22;47203;48.428;11.974;2022-07-23T09:06:29;25.60;59.50
61323;DHT22;47203;48.428;11.974;2022-07-23T09:08:36;25.70;59.40
61323;DHT22;47203;48.428;11.974;2022-07-23T09:10:44;25.70;59.70
61323;DHT22;47203;48.428;11.974;2022-07-23T09:12:53;25.70;59.80
61323;DHT22;47203;48.428;11.974;2022-07-23T09:15:04;25.70;59.60
61323;DHT22;47203;48.428;11.974;2022-07-23T09:17:11;25.70;59.70
61323;DHT22;47203;48.428;11.974;2022-07-23T09:19:27;25.70;59.50
61323;DHT22;47203;48.428;11.974;2022-07-23T09:21:33;25.60;59.10
61323;DHT22;47203;48.428;11.974;2022-07-23T09:23:42;25.60;59.50
61323;DHT22;47203;48.428;11.974;2022-07-23T09:25:48;25.50;59.50
61323;DHT22;47203;48.428;11.974;2022-07-23T09:27:58;25.50;59.60
61323;DHT22;47203;48.428;11.974;2022-07-23T09:30:06;25.40;60.00
61323;DHT22;47203;48.428;11.974;2022-07-23T09:32:13;25.40;60.00
61323;DHT22;47203;48.428;11.974;2022-07-23T09:34:21;25.30;60.50
61323;DHT22;47203;48.428;11.974;2022-07-23T09:36:28;25.30;60.80
61323;DHT22;47203;48.428;11.974;2022-07-23T09:38:34;25.30;60.70
61323;DHT22;47203;48.428;11.974;2022-07-23T09:41:06;25.30;60.90
61323;DHT22;47203;48.428;11.974;2022-07-23T09:43:26;25.30;60.80
61323;DHT22;47203;48.428;11.974;2022-07-23T09:45:36;25.40;60.80
61323;DHT22;47203;48.428;11.974;2022-07-23T09:47:42;25.50;60.70
61323;DHT22;47203;48.428;11.974;2022-07-23T09:50:00;25.60;61.10
61323;DHT22;47203;48.428;11.974;2022-07-23T09:52:08;25.90;60.30
61323;DHT22;47203;48.428;11.974;2022-07-23T09:54:26;26.00;60.30
61323;DHT22;47203;48.428;11.974;2022-07-23T09:56:37;26.30;59.60
61323;DHT22;47203;48.428;11.974;2022-07-23T09:58:50;26.40;59.30
61323;DHT22;47203;48.428;11.974;2022-07-23T10:01:04;26.50;58.50
61323;DHT22;47203;48.428;11.974;2022-07-23T10:03:11;26.70;58.40
61323;DHT22;47203;48.428;11.974;2022-07-23T10:05:37;26.80;57.90
61323;DHT22;47203;48.428;11.974;2022-07-23T10:08:01;26.90;57.70
61323;DHT22;47203;48.428;11.974;2022-07-23T10:10:32;27.00;57.60
61323;DHT22;47203;48.428;11.974;2022-07-23T10:12:59;27.10;57.20
61323;DHT22;47203;48.428;11.974;2022-07-23T10:15:26;27.20;57.00
61323;DHT22;47203;48.428;11.974;2022-07-23T10:17:33;27.40;57.10
61323;DHT22;47203;48.428;11.974;2022-07-23T10:19:43;27.60;57.30
61323;DHT22;47203;48.428;11.974;2022-07-23T10:21:52;27.80;56.50
61323;DHT22;47203;48.428;11.974;2022-07-23T10:24:12;27.90;56.70
61323;DHT22;47203;48.428;11.974;2022-07-23T10:26:36;28.10;56.20
61323;DHT22;47203;48.428;11.974;2022-07-23T10:29:00;28.30;55.40
61323;DHT22;47203;48.428;11.974;2022-07-23T10:31:28;28.50;53.80
61323;DHT22;47203;48.428;11.974;2022-07-23T10:34:06;28.70;54.50
61323;DHT22;47203;48.428;11.974;2022-07-23T10:36:22;28.90;53.90
61323;DHT22;47203;48.428;11.974;2022-07-23T10:38:37;29.00;53.10
61323;DHT22;47203;48.428;11.974;2022-07-23T10:40:55;29.10;52.90
61323;DHT22;47203;48.428;11.974;2022-07-23T10:43:02;29.30;53.40
61323;DHT22;47203;48.428;11.974;2022-07-23T10:45:25;29.40;53.20
61323;DHT22;47203;48.428;11.974;2022-07-23T10:47:34;29.60;52.80
61323;DHT22;47203;48.428;11.974;2022-07-23T10:49:49;29.70;52.00
61323;DHT22;47203;48.428;11.974;2022-07-23T10:52:15;29.90;52.40
61323;DHT22;47203;48.428;11.974;2022-07-23T10:54:25;30.10;51.60
61323;DHT22;47203;48.428;11.974;2022-07-23T10:56:49;30.20;51.50
61323;DHT22;47203;48.428;11.974;2022-07-23T10:59:11;30.30;51.60
61323;DHT22;47203;48.428;11.974;2022-07-23T11:01:32;30.40;51.00
61323;DHT22;47203;48.428;11.974;2022-07-23T11:03:56;30.60;51.20
61323;DHT22;47203;48.428;11.974;2022-07-23T11:06:04;30.80;50.70
61323;DHT22;47203;48.428;11.974;2022-07-23T11:08:18;30.90;50.60
61323;DHT22;47203;48.428;11.974;2022-07-23T11:10:32;31.00;50.30
61323;DHT22;47203;48.428;11.974;2022-07-23T11:12:39;31.20;50.70
61323;DHT22;47203;48.428;11.974;2022-07-23T11:15:00;31.30;50.90
61323;DHT22;47203;48.428;11.974;2022-07-23T11:17:19;31.50;50.80
61323;DHT22;47203;48.428;11.974;2022-07-23T11:19:27;31.70;50.00
61323;DHT22;47203;48.428;11.974;2022-07-23T11:21:48;31.80;49.40
61323;DHT22;47203;48.428;11.974;2022-07-23T11:23:58;32.00;48.60
61323;DHT22;47203;48.428;11.974;2022-07-23T11:26:06;32.10;48.10
61323;DHT22;47203;48.428;11.974;2022-07-23T11:28:15;32.20;48.20
61323;DHT22;47203;48.428;11.974;2022-07-23T11:30:39;32.20;47.40
61323;DHT22;47203;48.428;11.974;2022-07-23T11:32:46;32.30;47.10
61323;DHT22;47203;48.428;11.974;2022-07-23T11:34:53;32.20;46.80
61323;DHT22;47203;48.428;11.974;2022-07-23T11:36:59;32.10;46.50
61323;DHT22;47203;48.428;11.974;2022-07-23T11:39:06;32.00;46.40
61323;DHT22;47203;48.428;11.974;2022-07-23T11:41:13;32.00;46.50
61323;DHT22;47203;48.428;11.974;2022-07-23T11:43:19;31.90;47.10
61323;DHT22;47203;48.428;11.974;2022-07-23T11:45:30;31.90;46.90
61323;DHT22;47203;48.428;11.974;2022-07-23T11:47:38;31.90;47.00
61323;DHT22;47203;48.428;11.974;2022-07-23T11:49:54;32.00;47.60
61323;DHT22;47203;48.428;11.974;2022-07-23T11:52:04;32.10;45.50
61323;DHT22;47203;48.428;11.974;2022-07-23T11:54:11;32.20;46.50
61323;DHT22;47203;48.428;11.974;2022-07-23T11:56:16;32.30;46.50
61323;DHT22;47203;48.428;11.974;2022-07-23T11:58:21;32.30;46.20
61323;DHT22;47203;48.428;11.974;2022-07-23T12:00:28;32.30;46.00
61323;DHT22;47203;48.428;11.974;2022-07-23T12:02:43;32.30;46.00
61323;DHT22;47203;48.428;11.974;2022-07-23T12:04:54;32.30;46.20
61323;DHT22;47203;48.428;11.974;2022-07-23T12:06:59;32.30;46.30
61323;DHT22;47203;48.428;11.974;2022-07-23T12:09:07;32.30;46.40
61323;DHT22;47203;48.428;11.974;2022-07-23T12:11:15;32.20;46.20
61323;DHT22;47203;48.428;11.974;2022-07-23T12:13:21;32.20;45.90
61323;DHT22;47203;48.428;11.974;2022-07-23T12:15:29;32.20;46.40
61323;DHT22;47203;48.428;11.974;2022-07-23T12:17:38;32.20;46.90
61323;DHT22;47203;48.428;11.974;2022-07-23T12:19:55;32.20;46.90
61323;DHT22;47203;48.428;11.974;2022-07-23T12:22:02;32.20;46.30
61323;DHT22;47203;48.428;11.974;2022-07-23T12:24:07;32.20;45.90
61323;DHT22;47203;48.428;11.974;2022-07-23T12:26:13;32.20;45.00
61323;DHT22;47203;48.428;11.974;2022-07-23T12:28:20;32.30;45.20
61323;DHT22;47203;48.428;11.974;2022-07-23T12:30:28;32.20;45.30
61323;DHT22;47203;48.428;11.974;2022-07-23T12:32:43;32.20;45.30
61323;DHT22;47203;48.428;11.974;2022-07-23T12:35:02;32.30;44.50
61323;DHT22;47203;48.428;11.974;2022-07-23T12:37:25;32.30;44.80
61323;DHT22;47203;48.428;11.974;2022-07-23T12:39:32;32.30;44.70
61323;DHT22;47203;48.428;11.974;2022-07-23T12:41:50;32.40;44.60
61323;DHT22;47203;48.428;11.974;2022-07-23T12:43:58;32.50;44.60
61323;DHT22;47203;48.428;11.974;2022-07-23T12:46:06;32.50;44.70
61323;DHT22;47203;48.428;11.974;2022-07-23T12:48:18;32.60;43.80
61323;DHT22;47203;48.428;11.974;2022-07-23T12:50:38;32.70;43.30
61323;DHT22;47203;48.428;11.974;2022-07-23T12:52:46;32.70;42.60
61323;DHT22;47203;48.428;11.974;2022-07-23T12:54:51;32.70;42.60
61323;DHT22;47203;48.428;11.974;2022-07-23T12:56:57;32.70;42.50
61323;DHT22;47203;48.428;11.974;2022-07-23T12:59:06;32.80;42.60
61323;DHT22;47203;48.428;11.974;2022-07-23T13:01:23;32.80;41.50
61323;DHT22;47203;48.428;11.974;2022-07-23T13:03:33;32.70;41.20
61323;DHT22;47203;48.428;11.974;2022-07-23T13:05:43;32.70;41.10
61323;DHT22;47203;48.428;11.974;2022-07-23T13:07:50;32.70;41.10
61323;DHT22;47203;48.428;11.974;2022-07-23T13:09:55;32.60;41.20
61323;DHT22;47203;48.428;11.974;2022-07-23T13:12:01;32.60;41.20
61323;DHT22;47203;48.428;11.974;2022-07-23T13:14:07;32.50;40.90
61323;DHT22;47203;48.428;11.974;2022-07-23T13:16:13;32.40;40.30
61323;DHT22;47203;48.428;11.974;2022-07-23T13:18:19;32.30;40.60